Schoonebeek, Netherlands
Current Conditions -  °F | °C
As of 11:55 PM on Monday 24 Nov 2014 (Local Time) from EHGG Reporting Station
Haze Haze  
Wind Chill: 30°   Ceiling: Unl
Heat Index: 36°   Visibility: 1.5mi
Dew Point: 36°   Wind: 7mph
Humidity: 100%   Direction: 230°SW
Pressure: 30.3"   Gusts: NA
Location:  52.66°N, 6.88°E
Report Text: EHGG 242255Z AUTO 23006KT 2500 BR NCD 02/02 Q1026
Loading
Personal Weather Stations






























Interactive Weather Map New forecast layout! Learn more

10-Day Weather Forecast

Advertisements
Track Severe Weather on mobile